createdAt,value
2018-07-10T00:02:10.061Z,67.18
2018-07-10T00:04:48.420Z,66.15
2018-07-10T00:08:07.207Z,65.85
2018-07-10T00:10:39.759Z,66.40
2018-07-10T00:13:08.479Z,66.58
2018-07-10T00:15:37.076Z,66.99
2018-07-10T00:18:05.312Z,67.01
2018-07-10T00:20:33.643Z,66.92
2018-07-10T00:23:01.888Z,66.72
2018-07-10T00:25:30.498Z,66.70
2018-07-10T00:27:58.837Z,66.49
2018-07-10T00:30:27.071Z,67.37
2018-07-10T00:32:55.421Z,67.52
2018-07-10T00:35:23.670Z,66.92
2018-07-10T00:38:03.473Z,69.04
2018-07-10T00:40:31.702Z,70.95
2018-07-10T00:43:00.996Z,70.56
2018-07-10T00:45:29.403Z,71.65
2018-07-10T00:47:57.612Z,72.83
2018-07-10T00:50:25.896Z,72.02
2018-07-10T00:52:54.201Z,71.92
2018-07-10T00:55:23.885Z,73.31
2018-07-10T00:57:52.251Z,72.90
2018-07-10T01:00:31.605Z,72.82
2018-07-10T01:03:00.384Z,72.55
2018-07-10T01:05:28.751Z,73.44
2018-07-10T01:07:58.026Z,73.50
2018-07-10T01:10:26.332Z,74.75
2018-07-10T01:12:54.610Z,74.71
2018-07-10T01:15:23.950Z,75.19
2018-07-10T01:17:52.395Z,75.80
2018-07-10T01:20:21.188Z,74.61
2018-07-10T01:22:52.020Z,74.71
2018-07-10T01:25:20.241Z,75.82
2018-07-10T01:27:48.938Z,75.37
2018-07-10T01:30:17.322Z,75.59
2018-07-10T01:32:45.549Z,76.49
2018-07-10T01:35:13.782Z,76.66
2018-07-10T01:37:42.009Z,76.21
2018-07-10T01:40:10.301Z,76.96
2018-07-10T01:42:38.499Z,77.08
2018-07-10T01:45:06.775Z,76.94
2018-07-10T01:47:34.979Z,76.65
2018-07-10T01:50:03.322Z,77.45
2018-07-10T01:52:31.555Z,77.45
2018-07-10T01:54:59.747Z,77.44
2018-07-10T01:57:28.313Z,76.63
2018-07-10T01:59:56.860Z,77.77
2018-07-10T02:02:25.483Z,76.08
2018-07-10T02:04:54.575Z,78.11
2018-07-10T02:07:22.937Z,77.81
2018-07-10T02:09:51.249Z,77.00
2018-07-10T02:12:19.526Z,77.64
2018-07-10T02:14:47.752Z,77.95
2018-07-10T02:17:16.060Z,77.48
2018-07-10T02:19:44.280Z,78.15
2018-07-10T02:22:12.513Z,78.41
2018-07-10T02:24:41.534Z,79.51
2018-07-10T02:27:09.856Z,79.38
2018-07-10T02:29:38.116Z,79.09
2018-07-10T02:32:06.357Z,79.59
2018-07-10T02:34:34.584Z,79.19
2018-07-10T02:37:03.692Z,79.41
2018-07-10T02:39:31.953Z,78.31
2018-07-10T02:42:00.235Z,78.82
2018-07-10T02:44:28.580Z,78.48
2018-07-10T02:46:56.826Z,78.25
2018-07-10T02:49:25.127Z,78.23
2018-07-10T02:51:59.164Z,78.64
2018-07-10T02:54:29.726Z,77.72
2018-07-10T02:56:59.160Z,78.14
2018-07-10T03:02:34.248Z,77.91
2018-07-10T03:05:04.400Z,78.36
2018-07-10T03:07:36.514Z,77.97
2018-07-10T03:10:04.763Z,79.06
2018-07-10T03:12:35.812Z,78.42
2018-07-10T03:15:05.903Z,78.46
2018-07-10T03:17:34.262Z,78.59
2018-07-10T03:20:04.364Z,78.11
2018-07-10T03:22:32.799Z,79.36
2018-07-10T03:25:01.069Z,78.99
2018-07-10T03:27:29.304Z,79.16
2018-07-10T03:29:58.620Z,80.20
2018-07-10T03:32:26.816Z,79.46
2018-07-10T03:34:55.130Z,80.24
2018-07-10T03:37:23.733Z,80.50
2018-07-10T03:39:51.954Z,80.31
2018-07-10T03:42:20.422Z,80.21
2018-07-10T03:44:49.335Z,80.51
2018-07-10T03:47:18.809Z,80.85
2018-07-10T03:49:47.973Z,80.30
2018-07-10T03:52:26.133Z,73.77
2018-07-10T03:54:55.278Z,76.30
2018-07-10T03:57:24.279Z,77.39
2018-07-10T03:59:55.418Z,78.97
2018-07-10T04:02:24.190Z,79.37
2018-07-10T04:04:52.795Z,79.57
2018-07-10T04:07:21.034Z,79.85
2018-07-10T04:09:52.394Z,80.73
2018-07-10T04:12:22.819Z,81.08
2018-07-10T04:14:52.078Z,81.85
2018-07-10T04:17:23.023Z,81.69
2018-07-10T04:19:51.878Z,79.76
2018-07-10T04:22:29.478Z,80.89
2018-07-10T04:24:59.947Z,81.24
2018-07-10T04:27:30.952Z,81.18
2018-07-10T04:30:17.648Z,81.44
2018-07-10T04:32:45.947Z,81.23
2018-07-10T04:35:14.676Z,82.13
2018-07-10T04:37:46.939Z,81.93
2018-07-10T04:40:15.223Z,82.32
2018-07-10T04:42:56.723Z,81.98
2018-07-10T04:45:29.169Z,81.89
2018-07-10T04:47:58.171Z,81.44
2018-07-10T04:50:32.381Z,82.66
2018-07-10T04:53:06.934Z,82.56
2018-07-10T04:55:40.072Z,83.16
2018-07-10T04:58:24.410Z,82.61
2018-07-10T05:00:57.755Z,81.90
2018-07-10T05:03:26.641Z,81.97
2018-07-10T05:05:55.223Z,82.37
2018-07-10T05:08:23.460Z,81.79
2018-07-10T05:10:53.299Z,82.24
2018-07-10T05:13:21.519Z,81.48
2018-07-10T05:15:52.624Z,81.66
2018-07-10T05:18:21.054Z,81.18
2018-07-10T05:20:49.404Z,80.92
2018-07-10T05:23:18.420Z,81.10
2018-07-10T05:26:01.595Z,81.83
2018-07-10T05:28:29.829Z,80.52
2018-07-10T05:31:00.464Z,81.93
2018-07-10T05:33:29.205Z,81.68
2018-07-10T05:35:57.481Z,81.58
2018-07-10T05:38:30.634Z,81.21
2018-07-10T05:40:59.536Z,81.63
2018-07-10T05:43:27.791Z,81.17
2018-07-10T05:45:56.088Z,81.66
2018-07-10T05:48:24.332Z,82.29
2018-07-10T05:50:52.611Z,82.39
2018-07-10T05:53:20.921Z,82.63
2018-07-10T05:55:49.654Z,81.45
2018-07-10T05:58:18.010Z,82.97
2018-07-10T06:00:46.279Z,81.78
2018-07-10T06:03:14.534Z,82.76
2018-07-10T06:05:42.852Z,81.84
2018-07-10T06:08:13.093Z,82.23
2018-07-10T06:10:41.844Z,82.25
2018-07-10T06:13:10.066Z,83.30
2018-07-10T06:15:38.677Z,82.73
2018-07-10T06:18:07.334Z,83.05
2018-07-10T06:20:35.579Z,82.79
2018-07-10T06:23:03.811Z,82.91
2018-07-10T06:25:34.049Z,83.92
2018-07-10T06:28:09.691Z,83.54
2018-07-10T06:30:39.586Z,83.02
2018-07-10T06:33:15.115Z,82.78
2018-07-10T06:35:49.878Z,82.11
2018-07-10T06:38:19.045Z,83.00
2018-07-10T06:40:51.035Z,82.75
2018-07-10T06:43:44.448Z,82.89
2018-07-10T06:46:12.802Z,83.78
2018-07-10T06:48:45.510Z,84.16
2018-07-10T06:51:15.538Z,82.79
2018-07-10T06:53:44.905Z,83.43
2018-07-10T06:56:14.241Z,83.76
2018-07-10T06:58:42.502Z,83.57
2018-07-10T07:01:10.742Z,82.95
2018-07-10T07:03:38.948Z,83.33
2018-07-10T07:06:07.204Z,82.55
2018-07-10T07:08:35.421Z,82.27
2018-07-10T07:11:03.718Z,83.39
2018-07-10T07:13:31.942Z,82.38
2018-07-10T07:16:00.180Z,83.08
2018-07-10T07:18:28.379Z,84.19
2018-07-10T07:20:56.611Z,84.08
2018-07-10T07:23:24.863Z,83.20
2018-07-10T07:25:54.048Z,83.87
2018-07-10T07:28:22.296Z,84.83
2018-07-10T07:30:50.551Z,84.66
2018-07-10T07:33:18.891Z,84.46
2018-07-10T07:35:47.143Z,84.18
2018-07-10T07:38:16.647Z,84.34
2018-07-10T07:40:45.687Z,84.23
2018-07-10T07:43:13.948Z,83.67
2018-07-10T07:45:42.177Z,82.86
2018-07-10T07:48:10.396Z,84.78
2018-07-10T07:50:38.691Z,84.32
2018-07-10T07:53:06.904Z,83.62
2018-07-10T07:55:35.500Z,83.38
2018-07-10T07:58:03.709Z,82.80
2018-07-10T08:00:32.023Z,83.58
2018-07-10T08:03:01.059Z,83.73
2018-07-10T08:05:29.814Z,83.15
2018-07-10T08:07:58.023Z,82.44
2018-07-10T08:10:26.251Z,81.66
2018-07-10T08:12:54.653Z,80.77
2018-07-10T08:15:22.958Z,81.99
2018-07-10T08:17:51.199Z,80.97
2018-07-10T08:20:19.501Z,80.60
2018-07-10T08:22:48.072Z,81.51
2018-07-10T08:25:20.643Z,80.99
2018-07-10T08:27:48.969Z,81.38
2018-07-10T08:30:18.403Z,81.67
2018-07-10T08:32:46.697Z,80.97
2018-07-10T08:35:15.559Z,79.42
2018-07-10T08:37:44.852Z,80.31
2018-07-10T08:40:13.668Z,82.00
2018-07-10T08:42:43.170Z,80.23
2018-07-10T08:45:14.072Z,78.83
2018-07-10T08:47:45.292Z,79.79
2018-07-10T08:50:15.037Z,78.07
2018-07-10T08:52:43.295Z,77.31
2018-07-10T08:55:11.532Z,77.27
2018-07-10T08:57:40.514Z,77.29
2018-07-10T09:00:08.800Z,75.71
2018-07-10T09:02:37.133Z,76.66
2018-07-10T09:05:05.502Z,76.31
2018-07-10T09:07:33.726Z,75.78
2018-07-10T09:10:02.031Z,75.85
2018-07-10T09:12:30.323Z,74.76
2018-07-10T09:14:58.548Z,73.65
2018-07-10T09:17:28.352Z,72.60
2018-07-10T09:19:58.791Z,72.03
2018-07-10T09:22:28.229Z,72.67
2018-07-10T09:24:57.260Z,71.34
2018-07-10T09:27:25.549Z,72.74
2018-07-10T09:29:54.278Z,73.01
2018-07-10T09:32:29.118Z,72.13
2018-07-10T09:34:59.012Z,72.28
2018-07-10T09:37:35.352Z,71.90
2018-07-10T09:40:09.179Z,71.35
2018-07-10T09:42:42.663Z,70.79
2018-07-10T09:45:10.895Z,70.41
2018-07-10T09:47:39.187Z,69.79
2018-07-10T09:50:07.577Z,70.63
2018-07-10T09:52:35.756Z,69.86
2018-07-10T09:55:04.380Z,71.31
2018-07-10T09:57:33.424Z,71.72
2018-07-10T10:00:02.211Z,70.49
2018-07-10T10:02:32.614Z,71.82
2018-07-10T10:05:03.200Z,70.42
2018-07-10T10:07:31.435Z,69.58
2018-07-10T10:10:13.388Z,68.57
2018-07-10T10:12:58.062Z,67.38
2018-07-10T10:15:32.110Z,64.91
2018-07-10T10:18:01.444Z,64.45
2018-07-10T10:20:29.674Z,64.84
2018-07-10T10:23:00.156Z,64.79
2018-07-10T10:25:28.464Z,64.81
2018-07-10T10:27:56.769Z,63.77
2018-07-10T10:30:24.993Z,63.05
2018-07-10T10:32:53.208Z,61.33
2018-07-10T10:35:21.443Z,63.57
2018-07-10T10:37:49.717Z,63.83
2018-07-10T10:40:17.922Z,62.33
2018-07-10T10:42:46.183Z,60.80
2018-07-10T10:45:14.387Z,60.32
2018-07-10T10:47:42.651Z,60.63
2018-07-10T10:50:10.883Z,61.31
2018-07-10T10:52:39.105Z,62.05
2018-07-10T10:55:07.399Z,60.22
2018-07-10T10:57:38.345Z,58.31
2018-07-10T11:00:07.141Z,61.04
2018-07-10T11:02:35.385Z,60.09
2018-07-10T11:05:03.595Z,58.08
2018-07-10T11:07:33.220Z,61.11
2018-07-10T11:10:01.754Z,58.14
2018-07-10T11:12:30.928Z,57.69
2018-07-10T11:14:59.407Z,57.74
2018-07-10T11:17:30.766Z,59.33
2018-07-10T11:20:09.073Z,57.27
2018-07-10T11:22:51.795Z,57.56
2018-07-10T11:25:20.146Z,58.11
2018-07-10T11:27:59.263Z,57.65
2018-07-10T11:30:27.590Z,60.04
2018-07-10T11:32:55.796Z,59.77
2018-07-10T11:35:24.364Z,61.79
2018-07-10T11:37:52.816Z,63.98
2018-07-10T11:40:21.068Z,68.75
2018-07-10T11:42:49.277Z,74.53
2018-07-10T11:45:17.547Z,74.83
2018-07-10T11:47:45.767Z,77.28
2018-07-10T11:50:14.021Z,79.30
2018-07-10T11:52:42.579Z,79.23
2018-07-10T11:55:10.915Z,79.93
2018-07-10T11:57:39.320Z,80.74
2018-07-10T12:00:07.584Z,80.80
2018-07-10T12:02:47.315Z,79.05
2018-07-10T12:05:19.717Z,79.40
2018-07-10T12:08:05.200Z,79.61
2018-07-10T12:10:34.821Z,78.95
2018-07-10T12:13:03.056Z,80.82
2018-07-10T12:15:31.717Z,80.09
2018-07-10T12:18:00.549Z,79.84
2018-07-10T12:20:37.379Z,78.94
2018-07-10T12:23:06.945Z,76.70
2018-07-10T12:25:38.299Z,77.42
2018-07-10T12:28:07.877Z,77.07
2018-07-10T12:30:36.186Z,76.46
2018-07-10T12:33:04.558Z,77.90
2018-07-10T12:35:32.852Z,78.28
2018-07-10T12:38:01.097Z,77.77
2018-07-10T12:40:29.323Z,77.54
2018-07-10T12:42:57.595Z,79.15
2018-07-10T12:45:25.872Z,74.93
2018-07-10T12:47:54.132Z,77.36
2018-07-10T12:50:23.265Z,74.33
2018-07-10T12:52:51.536Z,74.43
2018-07-10T12:55:20.197Z,73.82
2018-07-10T12:57:49.004Z,73.97
2018-07-10T13:00:17.214Z,75.55
2018-07-10T13:02:51.662Z,74.01
2018-07-10T13:05:21.343Z,73.27
2018-07-10T13:07:49.661Z,73.22
2018-07-10T13:10:18.462Z,73.30
2018-07-10T13:12:46.740Z,73.37
2018-07-10T13:15:15.142Z,73.14
2018-07-10T13:17:47.508Z,72.56
2018-07-10T13:20:16.959Z,74.08
2018-07-10T13:22:45.251Z,72.60
2018-07-10T13:25:13.576Z,73.12
2018-07-10T13:27:41.774Z,70.71
2018-07-10T13:30:10.817Z,69.34
2018-07-10T13:32:39.053Z,68.41
2018-07-10T13:35:07.385Z,66.11
2018-07-10T13:37:36.650Z,69.92
2018-07-10T13:40:05.424Z,69.58
2018-07-10T13:42:44.936Z,66.95
2018-07-10T13:45:13.534Z,69.16
2018-07-10T13:47:41.870Z,70.24
2018-07-10T13:50:10.289Z,68.60
2018-07-10T13:52:38.580Z,67.45
2018-07-10T13:55:06.867Z,66.55
2018-07-10T13:57:35.451Z,68.60
2018-07-10T14:00:04.435Z,67.12
2018-07-10T14:02:33.983Z,66.64
2018-07-10T14:05:02.259Z,67.02
2018-07-10T14:07:31.072Z,67.33
2018-07-10T14:09:59.292Z,66.45
2018-07-10T14:12:28.140Z,65.83
2018-07-10T14:14:56.445Z,66.06
2018-07-10T14:17:25.087Z,65.32
2018-07-10T14:19:53.613Z,66.03
2018-07-10T14:22:23.335Z,65.12
2018-07-10T14:24:51.545Z,65.52
2018-07-10T14:27:19.754Z,65.09
2018-07-10T14:29:48.032Z,63.97
2018-07-10T14:32:16.277Z,62.38
2018-07-10T14:34:44.607Z,63.10
2018-07-10T14:37:13.170Z,61.59
2018-07-10T14:39:41.431Z,63.46
2018-07-10T14:42:09.651Z,60.40
2018-07-10T14:44:39.435Z,61.08
2018-07-10T14:47:07.665Z,60.92
2018-07-10T14:49:36.044Z,60.40
2018-07-10T14:52:04.298Z,58.09
2018-07-10T14:54:32.601Z,59.63
2018-07-10T14:57:01.260Z,57.17
2018-07-10T14:59:29.527Z,58.54
2018-07-10T15:02:03.972Z,59.06
2018-07-10T15:04:32.211Z,58.87
2018-07-10T15:07:00.438Z,58.63
2018-07-10T15:09:31.989Z,59.64
2018-07-10T15:12:00.912Z,60.32
2018-07-10T15:14:29.394Z,59.35
2018-07-10T15:17:03.000Z,58.53
2018-07-10T15:19:31.182Z,56.72
2018-07-10T15:21:59.388Z,56.58
2018-07-10T15:24:27.759Z,55.39
2018-07-10T15:26:56.042Z,56.34
2018-07-10T15:29:28.321Z,56.62
2018-07-10T15:31:57.023Z,55.21
2018-07-10T15:34:25.292Z,54.98
2018-07-10T15:36:53.867Z,54.60
2018-07-10T15:39:22.393Z,54.20
2018-07-10T15:41:50.889Z,52.97
2018-07-10T15:44:19.183Z,55.05
2018-07-10T15:46:47.509Z,53.07
2018-07-10T15:49:15.737Z,52.49
2018-07-10T15:51:44.447Z,52.83
2018-07-10T15:54:12.775Z,52.11
2018-07-10T15:56:41.035Z,52.67
2018-07-10T15:59:09.361Z,52.41
2018-07-10T16:01:40.232Z,52.42
2018-07-10T16:04:10.234Z,52.93
2018-07-10T16:06:40.305Z,53.07
2018-07-10T16:09:21.443Z,52.36
2018-07-10T16:11:54.382Z,51.83
2018-07-10T16:14:22.795Z,52.02
2018-07-10T16:16:51.034Z,52.27
2018-07-10T16:19:26.463Z,52.72
2018-07-10T16:22:00.480Z,54.20
2018-07-10T16:24:31.394Z,53.47
2018-07-10T16:26:59.695Z,53.58
2018-07-10T16:29:27.956Z,53.57
2018-07-10T16:31:59.060Z,53.94
2018-07-10T16:34:27.656Z,54.63
2018-07-10T16:36:55.882Z,52.58
2018-07-10T16:39:24.134Z,54.00
2018-07-10T16:41:57.616Z,53.37
2018-07-10T16:44:26.078Z,52.88
2018-07-10T16:47:02.164Z,52.19
2018-07-10T16:49:37.480Z,52.67
2018-07-10T16:52:09.875Z,53.17
2018-07-10T16:54:38.121Z,53.43
2018-07-10T16:57:06.342Z,53.32
2018-07-10T16:59:34.625Z,53.02
2018-07-10T17:02:03.523Z,54.19
2018-07-10T17:04:31.928Z,54.00
2018-07-10T17:07:00.200Z,51.84
2018-07-10T17:09:28.524Z,53.37
2018-07-10T17:11:56.766Z,54.88
2018-07-10T17:14:25.037Z,53.75
2018-07-10T17:16:53.355Z,53.88
2018-07-10T17:19:21.620Z,54.86
2018-07-10T17:21:49.872Z,55.46
2018-07-10T17:24:18.129Z,54.00
2018-07-10T17:26:46.341Z,53.55
2018-07-10T17:29:15.494Z,54.31
2018-07-10T17:31:43.736Z,53.76
2018-07-10T17:34:12.018Z,53.95
2018-07-10T17:36:40.231Z,54.68
2018-07-10T17:39:08.454Z,52.62
2018-07-10T17:41:37.516Z,54.79
2018-07-10T17:44:07.898Z,53.14
2018-07-10T17:46:37.004Z,53.20
2018-07-10T17:49:05.582Z,53.39
2018-07-10T17:51:34.110Z,53.70
2018-07-10T17:54:02.885Z,54.12
2018-07-10T17:56:31.842Z,53.63
2018-07-10T17:59:00.693Z,54.30
2018-07-10T18:01:28.916Z,52.73
2018-07-10T18:03:57.307Z,54.36
2018-07-10T18:06:25.520Z,54.09
2018-07-10T18:08:53.762Z,53.93
2018-07-10T18:11:22.032Z,53.29
2018-07-10T18:13:50.551Z,54.33
2018-07-10T18:16:18.857Z,54.10
2018-07-10T18:18:47.183Z,55.26
2018-07-10T18:21:15.574Z,53.76
2018-07-10T18:23:43.787Z,54.07
2018-07-10T18:26:12.052Z,55.61
2018-07-10T18:28:40.265Z,55.27
2018-07-10T18:31:08.501Z,55.76
2018-07-10T18:33:36.780Z,55.98
2018-07-10T18:36:05.142Z,54.18
2018-07-10T18:38:33.355Z,56.13
2018-07-10T18:41:01.578Z,55.38
2018-07-10T18:43:29.823Z,55.81
2018-07-10T18:45:58.441Z,57.09
2018-07-10T18:48:28.101Z,57.02
2018-07-10T18:50:57.905Z,57.35
2018-07-10T18:53:27.103Z,57.36
2018-07-10T18:55:55.332Z,58.33
2018-07-10T18:58:28.990Z,57.64
2018-07-10T19:01:17.465Z,56.39
2018-07-10T19:03:47.834Z,56.76
2018-07-10T19:06:18.232Z,57.76
2018-07-10T19:08:47.213Z,57.98
2018-07-10T19:11:18.054Z,58.04
2018-07-10T19:13:46.330Z,57.72
2018-07-10T19:16:14.539Z,58.37
2018-07-10T19:18:42.817Z,58.46
2018-07-10T19:21:32.915Z,58.12
2018-07-10T19:24:06.856Z,58.58
2018-07-10T19:26:36.958Z,58.01
2018-07-10T19:29:15.954Z,56.70
2018-07-10T19:31:44.344Z,57.84
2018-07-10T19:34:12.646Z,58.88
2018-07-10T19:36:42.698Z,58.04
2018-07-10T19:39:10.912Z,58.60
2018-07-10T19:41:39.327Z,59.88
2018-07-10T19:44:07.553Z,59.45
2018-07-10T19:46:36.401Z,60.66
2018-07-10T19:49:08.517Z,62.02
2018-07-10T19:51:39.521Z,60.72
2018-07-10T19:54:12.499Z,62.50
2018-07-10T19:56:41.642Z,62.70
2018-07-10T19:59:13.214Z,63.23
2018-07-10T20:01:44.975Z,63.24
2018-07-10T20:04:22.368Z,62.81
2018-07-10T20:07:26.475Z,63.87
2018-07-10T20:09:59.159Z,63.68
2018-07-10T20:12:36.521Z,64.37
2018-07-10T20:15:16.290Z,60.98
2018-07-10T20:17:58.603Z,60.74
2018-07-10T20:20:29.369Z,59.90
2018-07-10T20:23:04.879Z,60.58
2018-07-10T20:25:47.544Z,60.03
2018-07-10T20:28:22.450Z,61.86
2018-07-10T20:30:57.711Z,61.30
2018-07-10T20:33:39.107Z,61.64
2018-07-10T20:36:07.629Z,61.67
2018-07-10T20:38:35.888Z,62.05
2018-07-10T20:41:05.043Z,62.81
2018-07-10T20:43:37.286Z,63.24
2018-07-10T20:46:05.783Z,63.68
2018-07-10T20:48:48.186Z,63.11
2018-07-10T20:51:17.437Z,63.59
2018-07-10T20:53:53.511Z,63.07
2018-07-10T20:56:39.744Z,63.11
2018-07-10T20:59:15.706Z,64.67
2018-07-10T21:01:45.679Z,63.40
2018-07-10T21:04:27.817Z,64.20
2018-07-10T21:07:01.493Z,63.74
2018-07-10T21:10:42.185Z,64.21
2018-07-10T21:13:15.449Z,64.04
2018-07-10T21:15:51.938Z,65.10
2018-07-10T21:18:45.715Z,65.61
2018-07-10T21:21:21.590Z,65.77
2018-07-10T21:23:58.783Z,66.84
2018-07-10T21:26:35.100Z,66.21
2018-07-10T21:29:12.905Z,65.80
2018-07-10T21:31:47.513Z,66.81
2018-07-10T21:34:19.108Z,67.16
2018-07-10T21:37:56.445Z,67.36
2018-07-10T21:40:31.684Z,67.80
2018-07-10T21:43:06.749Z,68.80
2018-07-10T21:46:20.394Z,68.01
2018-07-10T21:49:54.326Z,67.79
2018-07-10T21:52:22.890Z,68.74
2018-07-10T21:54:51.195Z,68.43
2018-07-10T21:57:24.345Z,69.01
2018-07-10T21:59:56.518Z,69.28
2018-07-10T22:02:24.887Z,69.68
2018-07-10T22:04:54.535Z,70.32
2018-07-10T22:07:24.071Z,69.73
2018-07-10T22:09:53.993Z,69.71
2018-07-10T22:12:22.622Z,70.72
2018-07-10T22:14:50.866Z,71.43
2018-07-10T22:17:21.732Z,72.54
2018-07-10T22:19:50.713Z,71.97
2018-07-10T22:22:19.911Z,71.43
2018-07-10T22:24:50.420Z,72.37
2018-07-10T22:27:18.924Z,72.47
2018-07-10T22:29:53.149Z,72.83
2018-07-10T22:32:27.019Z,72.53
2018-07-10T22:34:55.216Z,74.47
2018-07-10T22:37:23.484Z,74.01
2018-07-10T22:39:51.735Z,75.66
2018-07-10T22:42:19.937Z,73.53
2018-07-10T22:44:49.196Z,75.09
2018-07-10T22:47:18.166Z,73.57
2018-07-10T22:49:48.439Z,75.02
2018-07-10T22:52:16.682Z,74.12
2018-07-10T22:54:45.012Z,74.06
2018-07-10T22:57:14.032Z,74.83
2018-07-10T22:59:43.888Z,74.31
2018-07-10T23:02:12.138Z,74.10
2018-07-10T23:04:40.595Z,75.60
2018-07-10T23:07:09.187Z,74.11
2018-07-10T23:09:37.568Z,75.03
2018-07-10T23:12:05.785Z,75.97
2018-07-10T23:14:34.643Z,74.98
2018-07-10T23:17:03.160Z,75.72
2018-07-10T23:19:31.556Z,76.51
2018-07-10T23:21:59.791Z,77.19
2018-07-10T23:24:29.844Z,76.71
2018-07-10T23:26:58.079Z,78.61
2018-07-10T23:29:32.163Z,77.91
2018-07-10T23:32:01.756Z,77.05
2018-07-10T23:34:29.976Z,76.26
2018-07-10T23:36:59.485Z,76.40
2018-07-10T23:39:34.143Z,76.22
2018-07-10T23:42:05.027Z,76.02
2018-07-10T23:44:38.411Z,75.56
2018-07-10T23:47:19.211Z,75.77
2018-07-10T23:49:49.316Z,77.41
2018-07-10T23:53:23.835Z,77.68
2018-07-10T23:55:52.099Z,78.68
2018-07-10T23:58:20.381Z,79.09
